Time;durP1;ratioP1;P1;durP2;ratioP2;P2;SDS_P1;SDS_P2;PMS_P1;PMS_P2;Temp;Humidity;BMP_temperature;BMP_pressure;BME280_temperature;BME280_humidity;BME280_pressure;Samples;Min_cycle;Max_cycle;Signal;HPM_P1;HPM_P2
2021/10/13 00:01:26;;;;;;;1999.90;999.90;;;;;;;8.53;100.00;95278.22;5091289;28;20508;-66
2021/10/13 00:03:53;;;;;;;1999.90;999.90;;;;;;;8.53;100.00;95276.41;5091356;28;20203;-67
2021/10/13 00:06:20;;;;;;;1999.90;999.90;;;;;;;8.45;100.00;95271.91;5090860;28;20578;-68
2021/10/13 00:08:47;;;;;;;1999.90;999.90;;;;;;;8.50;100.00;95269.22;5090791;28;20671;-66
2021/10/13 00:11:15;;;;;;;1999.90;999.90;;;;;;;8.50;100.00;95271.03;5091149;28;20219;-65
2021/10/13 00:13:42;;;;;;;1999.90;999.90;;;;;;;8.59;100.00;95261.56;5090769;28;20253;-65
2021/10/13 00:16:13;;;;;;;1999.90;999.90;;;;;;;8.46;100.00;95276.03;5090961;28;20192;-66
2021/10/13 00:18:40;;;;;;;1999.90;999.90;;;;;;;8.48;100.00;95263.56;5090719;28;20192;-67
2021/10/13 00:21:07;;;;;;;1999.90;999.90;;;;;;;8.49;100.00;95262.50;5091048;28;20196;-67
2021/10/13 00:23:34;;;;;;;1999.90;999.90;;;;;;;8.38;100.00;95261.13;5090660;28;20592;-67
2021/10/13 00:26:02;;;;;;;1999.90;999.90;;;;;;;8.38;100.00;95258.53;5091002;28;20632;-68
2021/10/13 00:28:29;;;;;;;1999.90;999.90;;;;;;;8.46;100.00;95252.72;5090765;28;20203;-67
2021/10/13 00:30:56;;;;;;;1999.90;999.90;;;;;;;8.44;100.00;95248.88;5090304;28;20274;-67
2021/10/13 00:33:25;;;;;;;1999.90;999.90;;;;;;;8.35;100.00;95246.19;5090405;28;20746;-67
2021/10/13 00:35:52;;;;;;;1999.90;999.90;;;;;;;8.40;100.00;95246.09;5090412;28;20770;-66
2021/10/13 00:38:19;;;;;;;1999.90;999.90;;;;;;;8.47;100.00;95235.34;5090370;28;20200;-66
2021/10/13 00:40:46;;;;;;;1999.90;999.90;;;;;;;8.43;100.00;95232.56;5089993;28;20235;-66
2021/10/13 00:43:13;;;;;;;1999.90;999.90;;;;;;;8.46;100.00;95232.00;5090219;28;20200;-67
2021/10/13 00:45:40;;;;;;;1999.90;999.90;;;;;;;8.56;100.00;95231.06;5090552;28;20202;-65
2021/10/13 00:48:07;;;;;;;1999.90;999.90;;;;;;;8.57;100.00;95230.75;5090137;28;20199;-66
2021/10/13 00:50:36;;;;;;;1999.90;999.90;;;;;;;8.55;100.00;95226.94;5090256;28;20207;-64
2021/10/13 00:53:03;;;;;;;1999.90;999.90;;;;;;;8.58;100.00;95229.72;5090384;28;20328;-65
2021/10/13 00:55:31;;;;;;;1999.90;999.90;;;;;;;8.62;100.00;95224.72;5089917;28;20214;-66
2021/10/13 00:57:58;;;;;;;1999.90;999.90;;;;;;;8.62;100.00;95222.13;5089846;28;20212;-65
2021/10/13 01:00:26;;;;;;;1999.90;999.90;;;;;;;8.66;100.00;95222.34;5090157;28;20196;-65
2021/10/13 01:03:03;;;;;;;1999.90;999.90;;;;;;;8.59;100.00;95215.72;5089823;28;20198;-66
2021/10/13 01:05:52;;;;;;;1999.90;999.90;;;;;;;8.60;100.00;95217.25;5089899;28;20647;-65
2021/10/13 01:08:31;;;;;;;1999.90;999.90;;;;;;;8.53;100.00;95213.50;5089871;28;20191;-66
2021/10/13 01:11:12;;;;;;;1999.90;999.90;;;;;;;8.49;100.00;95217.72;5090208;28;20191;-66
2021/10/13 01:13:52;;;;;;;1999.90;999.90;;;;;;;8.50;100.00;95225.19;5090111;28;20219;-66
2021/10/13 01:16:25;;;;;;;1999.90;999.90;;;;;;;8.36;100.00;95215.88;5089754;28;20190;-66
2021/10/13 01:18:56;;;;;;;1999.90;999.90;;;;;;;8.34;100.00;95223.91;5089762;28;20191;-66
2021/10/13 01:21:42;;;;;;;1999.90;999.90;;;;;;;8.33;100.00;95221.59;5089635;28;20598;-66
2021/10/13 01:24:27;;;;;;;1999.90;999.90;;;;;;;8.28;100.00;95225.03;5090024;28;20244;-66
2021/10/13 01:27:04;;;;;;;1999.90;999.90;;;;;;;8.32;100.00;95215.66;5089805;28;20574;-67
2021/10/13 01:29:37;;;;;;;1999.90;999.90;;;;;;;8.30;100.00;95225.56;5089287;28;20539;-67
2021/10/13 01:32:13;;;;;;;1999.90;999.90;;;;;;;8.28;100.00;95221.66;5089374;28;20302;-66
2021/10/13 01:34:45;;;;;;;1999.90;999.90;;;;;;;8.31;100.00;95219.31;5089322;28;20188;-66
2021/10/13 01:37:18;;;;;;;1999.90;999.90;;;;;;;8.40;100.00;95219.44;5089247;28;20188;-67
2021/10/13 01:39:50;;;;;;;1999.90;999.90;;;;;;;8.43;100.00;95224.78;5089467;28;20265;-66
2021/10/13 01:42:18;;;;;;;1999.90;999.90;;;;;;;8.36;100.00;95224.41;5089121;28;20223;-67
2021/10/13 01:44:50;;;;;;;1999.90;999.90;;;;;;;8.31;100.00;95221.91;5089201;28;20579;-67
2021/10/13 01:47:20;;;;;;;1999.90;999.90;;;;;;;8.31;100.00;95240.03;5089269;28;20659;-67
2021/10/13 01:49:49;;;;;;;1999.90;999.90;;;;;;;8.35;100.00;95229.88;5089580;28;20183;-67
2021/10/13 01:52:19;;;;;;;1999.90;999.90;;;;;;;8.40;100.00;95233.16;5089364;28;20760;-67
2021/10/13 01:54:47;;;;;;;1999.90;999.90;;;;;;;8.44;100.00;95228.16;5089072;28;20595;-67
2021/10/13 01:57:15;;;;;;;1999.90;999.90;;;;;;;8.40;100.00;95227.97;5089335;28;20252;-67
2021/10/13 01:59:42;;;;;;;1999.90;999.90;;;;;;;8.44;100.00;95226.34;5089425;28;20579;-66
2021/10/13 02:02:13;;;;;;;1999.90;999.90;;;;;;;8.42;100.00;95231.03;5089439;28;20227;-67
2021/10/13 02:04:42;;;;;;;1999.90;999.90;;;;;;;8.30;100.00;95238.50;5089249;28;20188;-67
2021/10/13 02:07:12;;;;;;;1999.90;999.90;;;;;;;8.36;100.00;95232.19;5088969;28;20211;-67
2021/10/13 02:09:41;;;;;;;1999.90;999.90;;;;;;;8.40;100.00;95233.16;5088916;28;20199;-67
2021/10/13 02:12:10;;;;;;;1999.90;999.90;;;;;;;8.38;100.00;95235.25;5088910;28;20714;-66
2021/10/13 02:14:40;;;;;;;1999.90;999.90;;;;;;;8.45;100.00;95240.06;5088839;28;20210;-67
2021/10/13 02:17:09;;;;;;;1999.90;999.90;;;;;;;8.44;100.00;95241.88;5088953;28;20257;-67
2021/10/13 02:19:41;;;;;;;1999.90;999.90;;;;;;;8.23;100.00;95249.19;5088856;28;20694;-66
2021/10/13 02:22:09;;;;;;;1999.90;999.90;;;;;;;8.35;100.00;95250.59;5088876;28;20188;-67
2021/10/13 02:24:41;;;;;;;1999.90;999.90;;;;;;;8.48;100.00;95252.41;5088768;28;20196;-66
2021/10/13 02:27:12;;;;;;;1999.90;999.90;;;;;;;8.36;100.00;95250.31;5088905;28;20663;-67
2021/10/13 02:29:39;;;;;;;1999.90;999.90;;;;;;;8.29;100.00;95246.50;5089238;28;20210;-66
2021/10/13 02:32:08;;;;;;;1999.90;999.90;;;;;;;8.22;100.00;95244.28;5088772;28;20242;-67
2021/10/13 02:34:38;;;;;;;1999.90;999.90;;;;;;;8.28;100.00;95237.19;5088755;28;20196;-67
2021/10/13 02:37:05;;;;;;;1999.90;999.90;;;;;;;8.30;100.00;95233.31;5089238;28;20564;-67
2021/10/13 02:39:33;;;;;;;1999.90;999.90;;;;;;;8.36;100.00;95241.78;5089361;28;20200;-67
2021/10/13 02:42:00;;;;;;;1999.90;999.90;;;;;;;8.32;100.00;95246.72;5091766;28;20227;-66
2021/10/13 02:44:27;;;;;;;1999.90;999.90;;;;;;;8.17;100.00;95250.31;5092639;28;20196;-67
2021/10/13 02:47:02;;;;;;;1999.90;999.90;;;;;;;8.12;100.00;95252.19;5092450;28;20252;-66
2021/10/13 02:49:37;;;;;;;1999.90;999.90;;;;;;;8.12;100.00;95249.63;5092479;28;20695;-67
2021/10/13 02:52:14;;;;;;;1999.90;999.90;;;;;;;8.12;100.00;95252.97;5092579;28;20234;-67
2021/10/13 02:54:51;;;;;;;1999.90;999.90;;;;;;;8.06;100.00;95258.53;5093372;28;20677;-65
2021/10/13 02:57:20;;;;;;;1999.90;999.90;;;;;;;7.91;100.00;95256.16;5092668;28;20191;-67
2021/10/13 02:59:51;;;;;;;1999.90;999.90;;;;;;;7.83;100.00;95267.13;5092291;28;20770;-66
2021/10/13 03:02:24;;;;;;;1999.90;999.90;;;;;;;7.76;100.00;95264.91;5092344;28;20616;-67
2021/10/13 03:04:54;;;;;;;1999.90;999.90;;;;;;;7.60;100.00;95271.34;5092379;28;20615;-66
2021/10/13 03:07:26;;;;;;;1999.90;999.90;;;;;;;7.57;100.00;95272.66;5092539;28;20749;-67
2021/10/13 03:09:56;;;;;;;1999.90;999.90;;;;;;;7.52;100.00;95285.66;5092427;28;20195;-65
2021/10/13 03:12:26;;;;;;;1999.90;999.90;;;;;;;7.45;100.00;95281.88;5091990;28;20653;-67
2021/10/13 03:14:57;;;;;;;1999.90;999.90;;;;;;;7.53;100.00;95287.19;5092236;28;20241;-67
2021/10/13 03:17:25;;;;;;;1999.90;999.90;;;;;;;7.60;100.00;95292.03;5092207;28;20195;-66
2021/10/13 03:19:55;;;;;;;1999.90;999.90;;;;;;;7.62;100.00;95288.09;5092132;28;20261;-66
2021/10/13 03:22:25;;;;;;;1999.90;999.90;;;;;;;7.63;100.00;95291.47;5092076;28;20231;-67
2021/10/13 03:24:52;;;;;;;1999.90;999.90;;;;;;;7.54;100.00;95293.91;5091781;28;20652;-66
2021/10/13 03:27:24;;;;;;;1999.90;999.90;;;;;;;7.49;100.00;95293.97;5091654;28;20667;-66
2021/10/13 03:29:51;;;;;;;1999.90;999.90;;;;;;;7.45;100.00;95295.59;5091654;28;20189;-67
2021/10/13 03:32:19;;;;;;;1999.90;999.90;;;;;;;7.38;100.00;95294.38;5091660;28;20223;-66
2021/10/13 03:34:46;;;;;;;1999.90;999.90;;;;;;;7.27;100.00;95293.75;5091472;28;20200;-67
2021/10/13 03:37:15;;;;;;;1999.90;999.90;;;;;;;7.16;100.00;95292.31;5091510;28;20206;-67
2021/10/13 03:39:46;;;;;;;1999.90;999.90;;;;;;;7.02;100.00;95296.63;5091219;28;20260;-67
2021/10/13 03:42:13;;;;;;;1999.90;999.90;;;;;;;7.01;100.00;95295.06;5091603;28;20232;-66
2021/10/13 03:44:40;;;;;;;1999.90;999.90;;;;;;;6.83;100.00;95293.94;5091332;28;20211;-67
2021/10/13 03:47:08;;;;;;;1999.90;999.90;;;;;;;6.82;100.00;95298.34;5091317;28;20208;-67
2021/10/13 03:49:35;;;;;;;1999.90;999.90;;;;;;;6.86;100.00;95299.34;5091356;28;20667;-66
2021/10/13 03:52:04;;;;;;;1999.90;999.90;;;;;;;6.81;100.00;95296.81;5090876;28;20226;-66
2021/10/13 03:54:31;;;;;;;1999.90;999.90;;;;;;;6.71;100.00;95293.56;5091279;28;20200;-65
2021/10/13 03:57:00;;;;;;;1999.90;999.90;;;;;;;6.70;100.00;95299.78;5091272;28;20219;-66
2021/10/13 03:59:27;;;;;;;1999.90;999.90;;;;;;;6.58;100.00;95292.38;5091070;28;20199;-66
2021/10/13 04:01:54;;;;;;;1999.90;999.90;;;;;;;6.56;100.00;95299.66;5091157;28;20200;-66
2021/10/13 04:04:21;;;;;;;1999.90;999.90;;;;;;;6.54;100.00;95291.41;5091038;28;20202;-67
2021/10/13 04:06:49;;;;;;;1999.90;999.90;;;;;;;6.53;100.00;95305.34;5090848;28;20199;-67
2021/10/13 04:09:16;;;;;;;1999.90;999.90;;;;;;;6.49;100.00;95304.34;5091212;28;20282;-66
2021/10/13 04:11:43;;;;;;;1999.90;999.90;;;;;;;6.48;100.00;95302.78;5090799;28;20204;-67
2021/10/13 04:14:11;;;;;;;1999.90;999.90;;;;;;;6.41;100.00;95310.09;5091167;28;20203;-67
2021/10/13 04:16:39;;;;;;;1999.90;999.90;;;;;;;6.34;100.00;95315.56;5090792;28;20217;-66
2021/10/13 04:19:06;;;;;;;1999.90;999.90;;;;;;;6.29;100.00;95310.44;5090555;28;20196;-66
2021/10/13 04:21:33;;;;;;;1999.90;999.90;;;;;;;6.23;100.00;95316.69;5090539;28;20199;-66
2021/10/13 04:24:00;;;;;;;1999.90;999.90;;;;;;;6.24;100.00;95314.88;5090526;28;20568;-66
2021/10/13 04:26:27;;;;;;;1999.90;999.90;;;;;;;6.23;100.00;95318.47;5090784;28;20275;-67
2021/10/13 04:28:54;;;;;;;1999.90;999.90;;;;;;;6.14;100.00;95322.69;5090337;28;20210;-66
2021/10/13 04:31:23;;;;;;;1999.90;999.90;;;;;;;6.01;100.00;95319.69;5090522;28;20195;-67
2021/10/13 04:33:50;;;;;;;1999.90;999.90;;;;;;;5.96;100.00;95326.69;5090205;28;20607;-66
2021/10/13 04:36:17;;;;;;;1999.90;999.90;;;;;;;5.90;100.00;95325.16;5090571;28;20222;-67
2021/10/13 04:38:44;;;;;;;1999.90;999.90;;;;;;;5.71;100.00;95326.78;5090484;28;20202;-66
2021/10/13 04:41:11;;;;;;;1999.90;999.90;;;;;;;5.62;100.00;95318.84;5090149;28;20234;-67
2021/10/13 04:43:38;;;;;;;1999.90;999.90;;;;;;;5.62;100.00;95329.94;5090214;28;20199;-67
2021/10/13 04:46:05;;;;;;;1999.90;999.90;;;;;;;5.72;100.00;95336.06;5090127;28;20663;-67
2021/10/13 04:48:34;;;;;;;1999.90;999.90;;;;;;;5.69;100.00;95337.38;5090096;28;20198;-66
2021/10/13 04:51:01;;;;;;;1999.90;999.90;;;;;;;5.65;100.00;95349.25;5090078;28;20206;-66
2021/10/13 04:53:29;;;;;;;1999.90;999.90;;;;;;;5.57;100.00;95344.66;5090096;28;20227;-66
2021/10/13 04:55:56;;;;;;;1999.90;999.90;;;;;;;5.58;100.00;95356.47;5089890;28;20202;-66
2021/10/13 04:58:23;;;;;;;1999.90;999.90;;;;;;;5.58;100.00;95364.22;5089686;28;20246;-66
2021/10/13 05:00:50;;;;;;;1999.90;999.90;;;;;;;5.56;100.00;95363.72;5089867;28;20200;-66
2021/10/13 05:03:17;;;;;;;1999.90;999.90;;;;;;;5.55;100.00;95362.94;5089315;28;20663;-66
2021/10/13 05:05:46;;;;;;;1999.90;999.90;;;;;;;5.61;100.00;95359.31;5090041;28;20192;-66
2021/10/13 05:08:13;;;;;;;1999.90;999.90;;;;;;;5.66;100.00;95368.84;5089920;28;20200;-67
2021/10/13 05:10:40;;;;;;;1999.90;999.90;;;;;;;5.69;100.00;95376.03;5090197;28;20563;-66
2021/10/13 05:13:07;;;;;;;1999.90;999.90;;;;;;;5.72;100.00;95372.16;5089838;28;20290;-66
2021/10/13 05:15:35;;;;;;;1999.90;999.90;;;;;;;5.73;100.00;95379.63;5089525;28;20195;-66
2021/10/13 05:18:03;;;;;;;1999.90;999.90;;;;;;;5.80;100.00;95380.13;5089410;28;20210;-66
2021/10/13 05:20:30;;;;;;;1999.90;999.90;;;;;;;5.93;100.00;95381.34;5089952;28;20207;-67
2021/10/13 05:23:00;;;;;;;1999.90;999.90;;;;;;;6.11;100.00;95385.13;5089325;28;20654;-66
2021/10/13 05:25:27;;;;;;;1999.90;999.90;;;;;;;6.18;100.00;95388.94;5089346;28;20263;-67
2021/10/13 05:27:54;;;;;;;1999.90;999.90;;;;;;;6.16;100.00;95392.84;5089377;28;20210;-66
2021/10/13 05:30:21;;;;;;;1999.90;999.90;;;;;;;6.34;100.00;95392.97;5089359;28;20194;-66
2021/10/13 05:32:48;;;;;;;1999.90;999.90;;;;;;;6.41;100.00;95393.47;5089903;28;20225;-66
2021/10/13 05:35:15;;;;;;;1999.90;999.90;;;;;;;6.52;100.00;95391.59;5089552;28;20842;-67
2021/10/13 05:37:43;;;;;;;1999.90;999.90;;;;;;;6.57;100.00;95399.28;5088998;28;20696;-66
2021/10/13 05:40:12;;;;;;;1999.90;999.90;;;;;;;6.65;100.00;95405.66;5088115;28;20209;-65
2021/10/13 05:42:40;;;;;;;1999.90;999.90;;;;;;;6.78;100.00;95413.56;5089403;28;20659;-66
2021/10/13 05:45:07;;;;;;;1999.90;999.90;;;;;;;6.86;100.00;95402.66;5089414;28;20199;-66
2021/10/13 05:47:34;;;;;;;1999.90;999.90;;;;;;;6.96;100.00;95406.19;5089348;28;20196;-66
2021/10/13 05:50:02;;;;;;;1999.90;999.90;;;;;;;7.15;100.00;95410.41;5089487;28;20191;-66
2021/10/13 05:52:29;;;;;;;1999.90;999.90;;;;;;;7.88;100.00;95411.94;5089084;28;20238;-67
2021/10/13 05:54:56;;;;;;;1999.90;999.90;;;;;;;8.81;100.00;95418.97;5089570;28;20196;-67
2021/10/13 05:57:24;;;;;;;1999.90;999.90;;;;;;;9.21;99.00;95418.28;5089570;28;20253;-67
2021/10/13 05:59:57;;;;;;;1999.90;999.90;;;;;;;9.23;96.68;95421.34;5089566;28;20207;-67
2021/10/13 06:02:24;;;;;;;1999.90;999.90;;;;;;;9.52;96.10;95416.69;5089239;28;20217;-67
2021/10/13 06:04:51;;;;;;;1999.90;999.90;;;;;;;9.19;94.84;95425.56;5089416;28;20195;-67
2021/10/13 06:07:18;;;;;;;1999.90;999.90;;;;;;;9.18;96.16;95431.03;5089118;28;20202;-67
2021/10/13 06:09:45;;;;;;;1999.90;999.90;;;;;;;9.04;96.51;95433.59;5089317;28;20195;-66
2021/10/13 06:12:13;;;;;;;1999.90;999.90;;;;;;;9.00;96.13;95432.63;5088882;28;20200;-65
2021/10/13 06:14:41;;;;;;;1999.90;999.90;;;;;;;8.95;97.16;95427.53;5089943;28;20274;-66
2021/10/13 06:17:08;;;;;;;1999.90;999.90;;;;;;;8.96;98.78;95436.84;5093286;28;20253;-66
2021/10/13 06:19:36;;;;;;;1999.90;999.90;;;;;;;8.99;97.97;95437.06;5093013;28;20196;-66
2021/10/13 06:22:03;;;;;;;1999.90;999.90;;;;;;;9.00;98.72;95438.59;5093107;28;20203;-66
2021/10/13 06:24:30;;;;;;;1999.90;999.90;;;;;;;9.11;98.99;95439.19;5093013;28;20655;-66
2021/10/13 06:26:58;;;;;;;1999.90;999.90;;;;;;;9.39;99.47;95438.19;5092856;28;20290;-67
2021/10/13 06:29:25;;;;;;;1999.90;999.90;;;;;;;9.69;98.65;95449.06;5090892;28;20203;-66
2021/10/13 06:31:53;;;;;;;1999.90;999.90;;;;;;;10.00;97.40;95449.25;5084249;28;20295;-67
2021/10/13 06:34:21;;;;;;;1999.90;999.90;;;;;;;9.89;93.96;95446.09;5085740;28;20688;-70
2021/10/13 06:36:48;;;;;;;1999.90;999.90;;;;;;;9.87;94.87;95450.78;5081522;28;20211;-71
2021/10/13 06:39:15;;;;;;;1999.90;999.90;;;;;;;10.12;95.77;95442.50;5073326;28;20668;-72
2021/10/13 06:41:42;;;;;;;1999.90;999.90;;;;;;;10.29;94.02;95453.09;5073150;28;20248;-71
2021/10/13 06:44:12;;;;;;;1999.90;999.90;;;;;;;10.55;92.91;95444.75;5073188;28;20566;-71
2021/10/13 06:46:39;;;;;;;1999.90;999.90;;;;;;;10.72;90.69;95443.03;5079039;28;20348;-72
2021/10/13 06:49:08;;;;;;;1999.90;999.90;;;;;;;10.94;89.33;95444.91;5073161;28;20196;-73
2021/10/13 06:51:36;;;;;;;1999.90;999.90;;;;;;;11.10;88.42;95451.28;5073055;28;20588;-72
2021/10/13 06:54:03;;;;;;;1999.90;999.90;;;;;;;10.90;88.32;95438.75;5072968;28;20228;-73
2021/10/13 06:56:31;;;;;;;1999.90;999.90;;;;;;;11.00;85.40;95454.13;5073486;28;20247;-67
2021/10/13 06:58:58;;;;;;;1999.90;999.90;;;;;;;10.69;84.17;95451.44;5093112;28;20199;-69
2021/10/13 07:01:25;;;;;;;1999.90;999.90;;;;;;;10.55;84.91;95455.16;5093106;28;20196;-68
2021/10/13 07:03:52;;;;;;;1999.90;999.90;;;;;;;10.51;83.97;95449.75;5092876;28;20192;-66
2021/10/13 07:06:21;;;;;;;1999.90;999.90;;;;;;;10.74;82.53;95443.53;5090017;28;20754;-66
2021/10/13 07:08:48;;;;;;;1999.90;999.90;;;;;;;10.92;83.21;95444.41;5090948;28;20203;-66
2021/10/13 07:11:16;;;;;;;1999.90;999.90;;;;;;;10.94;80.55;95449.31;5091537;28;20559;-66
2021/10/13 07:13:43;;;;;;;1999.90;999.90;;;;;;;10.98;79.67;95445.84;5091538;28;20223;-67
2021/10/13 07:16:10;;;;;;;1999.90;999.90;;;;;;;11.25;81.43;95446.75;5090969;28;20741;-68
2021/10/13 07:18:37;;;;;;;1999.90;999.90;;;;;;;11.20;79.89;95456.22;5091007;28;20253;-66
2021/10/13 07:21:05;;;;;;;1999.90;999.90;;;;;;;11.25;79.86;95457.16;5092512;28;20196;-67
2021/10/13 07:23:33;;;;;;;1999.90;999.90;;;;;;;11.43;77.79;95461.38;5092795;28;20227;-67
2021/10/13 07:26:01;;;;;;;1999.90;999.90;;;;;;;11.45;76.65;95467.84;5092025;28;20667;-67
2021/10/13 07:28:28;;;;;;;1999.90;999.90;;;;;;;11.51;76.34;95458.03;5092684;28;20202;-67
2021/10/13 07:30:55;;;;;;;1999.90;999.90;;;;;;;11.50;77.09;95454.69;5092655;28;20196;-67
2021/10/13 07:33:23;;;;;;;1999.90;999.90;;;;;;;11.65;77.06;95450.94;5092829;28;20224;-66
2021/10/13 07:35:50;;;;;;;1999.90;999.90;;;;;;;11.75;76.08;95457.75;5092552;28;20279;-67
2021/10/13 07:38:17;;;;;;;1999.90;999.90;;;;;;;11.52;79.44;95462.19;5092661;28;20247;-67
2021/10/13 07:40:46;;;;;;;1999.90;999.90;;;;;;;11.32;80.08;95462.69;5092296;28;20330;-67
2021/10/13 07:43:14;;;;;;;1999.90;999.90;;;;;;;11.22;80.41;95451.47;5092529;28;20228;-66
2021/10/13 07:45:42;;;;;;;1999.90;999.90;;;;;;;11.22;81.58;95442.91;5092408;28;20192;-67
2021/10/13 07:48:10;;;;;;;1999.90;999.90;;;;;;;11.60;82.62;95443.25;5092577;28;20778;-68
2021/10/13 07:50:37;;;;;;;1999.90;999.90;;;;;;;11.40;81.78;95447.16;5092455;28;20196;-66
2021/10/13 07:53:05;;;;;;;1999.90;999.90;;;;;;;11.11;82.31;95452.78;5092196;28;20633;-67
2021/10/13 07:55:32;;;;;;;1999.90;999.90;;;;;;;11.40;81.91;95454.19;5092151;28;20221;-66
2021/10/13 07:58:01;;;;;;;1999.90;999.90;;;;;;;11.56;80.63;95463.88;5092021;28;20249;-65
2021/10/13 08:00:28;;;;;;;1999.90;999.90;;;;;;;11.56;81.02;95460.53;5092525;28;20221;-66
2021/10/13 08:02:55;;;;;;;1999.90;999.90;;;;;;;11.58;77.54;95468.81;5092333;28;20195;-66
2021/10/13 08:05:23;;;;;;;1999.90;999.90;;;;;;;11.48;76.73;95471.66;5092067;28;20196;-66
2021/10/13 08:07:50;;;;;;;1999.90;999.90;;;;;;;11.52;77.47;95467.41;5092254;28;20192;-65
2021/10/13 08:10:17;;;;;;;1999.90;999.90;;;;;;;11.48;77.56;95472.44;5092251;28;20210;-67
2021/10/13 08:12:45;;;;;;;1999.90;999.90;;;;;;;11.83;74.98;95468.19;5091906;28;20683;-67
2021/10/13 08:15:13;;;;;;;1999.90;999.90;;;;;;;11.91;74.94;95467.44;5092095;28;20267;-66
2021/10/13 08:17:41;;;;;;;1999.90;999.90;;;;;;;12.28;76.26;95466.16;5092155;28;20203;-67
2021/10/13 08:20:10;;;;;;;1999.90;999.90;;;;;;;12.23;74.86;95475.94;5091906;28;20202;-67
2021/10/13 08:22:37;;;;;;;1999.90;999.90;;;;;;;11.99;74.27;95481.56;5091948;28;20196;-67
2021/10/13 08:25:05;;;;;;;1999.90;999.90;;;;;;;12.25;76.43;95473.81;5092115;28;20246;-67
2021/10/13 08:27:33;;;;;;;1999.90;999.90;;;;;;;12.28;74.41;95473.97;5091932;28;20191;-67
2021/10/13 08:30:00;;;;;;;1999.90;999.90;;;;;;;12.19;73.79;95488.81;5091726;28;20188;-66
2021/10/13 08:32:28;;;;;;;1999.90;999.90;;;;;;;12.20;75.42;95481.78;5091858;28;20558;-67
2021/10/13 08:34:56;;;;;;;1999.90;999.90;;;;;;;12.39;75.92;95479.66;5091667;28;20230;-67
2021/10/13 08:37:23;;;;;;;1999.90;999.90;;;;;;;12.53;71.76;95480.28;5091378;28;20210;-67
2021/10/13 08:39:50;;;;;;;1999.90;999.90;;;;;;;12.54;71.10;95481.06;5091513;28;20196;-67
2021/10/13 08:42:23;;;;;;;1999.90;999.90;;;;;;;12.71;72.62;95471.41;5091317;28;20661;-66
2021/10/13 08:44:52;;;;;;;1999.90;999.90;;;;;;;12.94;73.18;95472.78;5091555;28;20184;-67
2021/10/13 08:47:20;;;;;;;1999.90;999.90;;;;;;;13.20;71.06;95477.25;5091249;28;20198;-66
2021/10/13 08:49:51;;;;;;;1999.90;999.90;;;;;;;13.10;72.11;95478.28;5091179;28;20200;-66
2021/10/13 08:52:18;;;;;;;1999.90;999.90;;;;;;;12.61;71.37;95479.53;5091504;28;20180;-67
2021/10/13 08:54:45;;;;;;;1999.90;999.90;;;;;;;12.48;73.55;95477.84;5091069;28;20216;-66
2021/10/13 08:57:19;;;;;;;1999.90;999.90;;;;;;;12.70;73.29;95487.38;5091183;28;20205;-67
2021/10/13 08:59:48;;;;;;;1999.90;999.90;;;;;;;12.63;71.59;95489.66;5090954;28;20241;-67
2021/10/13 09:02:17;;;;;;;1999.90;999.90;;;;;;;12.74;73.72;95483.84;5091156;28;20207;-67
2021/10/13 09:05:05;;;;;;;1999.90;999.90;;;;;;;13.12;72.60;95491.81;5090818;28;20200;-67
2021/10/13 09:07:33;;;;;;;1999.90;999.90;;;;;;;13.10;70.61;95491.31;5090869;28;20711;-67
2021/10/13 09:10:00;;;;;;;1999.90;999.90;;;;;;;13.15;70.31;95498.28;5091153;28;20200;-66
2021/10/13 09:12:32;;;;;;;1999.90;999.90;;;;;;;13.00;69.30;95494.25;5091086;28;20199;-66
2021/10/13 09:15:08;;;;;;;1999.90;999.90;;;;;;;13.07;71.41;95491.94;5090707;28;20226;-67
2021/10/13 09:17:51;;;;;;;1999.90;999.90;;;;;;;13.27;71.21;95495.78;5090721;28;20198;-67
2021/10/13 09:20:21;;;;;;;1999.90;999.90;;;;;;;13.78;69.41;95487.84;5090957;28;20219;-68
2021/10/13 09:23:04;;;;;;;1999.90;999.90;;;;;;;13.87;67.56;95481.81;5090635;28;20759;-67
2021/10/13 09:25:32;;;;;;;1999.90;999.90;;;;;;;14.06;65.97;95472.50;5090866;28;20246;-67
2021/10/13 09:28:00;;;;;;;1999.90;999.90;;;;;;;14.16;66.76;95481.81;5090526;28;20195;-67
2021/10/13 09:30:34;;;;;;;1999.90;999.90;;;;;;;14.22;66.87;95478.72;5090834;28;20227;-67
2021/10/13 09:33:13;;;;;;;1999.90;999.90;;;;;;;13.96;63.82;95498.19;5090801;28;20269;-66
2021/10/13 09:35:49;;;;;;;1999.90;999.90;;;;;;;13.69;65.04;95494.94;5090395;28;20698;-66
2021/10/13 09:38:19;;;;;;;1999.90;999.90;;;;;;;13.80;67.94;95492.72;5090677;28;20187;-68
2021/10/13 09:40:47;;;;;;;1999.90;999.90;;;;;;;13.87;67.09;95503.47;5090152;28;20238;-68
2021/10/13 09:43:31;;;;;;;1999.90;999.90;;;;;;;13.70;65.58;95493.06;5088119;28;20200;-67
2021/10/13 09:46:03;;;;;;;1999.90;999.90;;;;;;;13.62;65.86;95497.25;5090282;28;20200;-67
2021/10/13 09:48:30;;;;;;;1999.90;999.90;;;;;;;13.84;66.89;95495.50;5090360;28;20191;-68
2021/10/13 09:51:13;;;;;;;1999.90;999.90;;;;;;;13.73;64.86;95495.84;5089815;28;20193;-68
2021/10/13 09:53:41;;;;;;;1999.90;999.90;;;;;;;13.49;64.26;95487.78;5090204;28;20270;-67
2021/10/13 09:56:26;;;;;;;1999.90;999.90;;;;;;;13.47;64.82;95486.53;5090289;28;20200;-66
2021/10/13 09:59:08;;;;;;;1999.90;999.90;;;;;;;13.14;63.17;95491.53;5090392;28;20203;-67
2021/10/13 10:01:36;;;;;;;1999.90;999.90;;;;;;;13.08;63.75;95496.09;5086722;28;20199;-67
2021/10/13 10:04:06;;;;;;;1999.90;999.90;;;;;;;13.55;64.08;95493.59;5078623;28;20591;-66
2021/10/13 10:06:35;;;;;;;1999.90;999.90;;;;;;;13.69;62.92;95492.31;5070150;28;20201;-66
2021/10/13 10:09:04;;;;;;;1999.90;999.90;;;;;;;13.70;60.79;95491.22;5069797;28;20204;-67
2021/10/13 10:11:34;;;;;;;1999.90;999.90;;;;;;;13.75;62.65;95478.00;5070295;28;20611;-66
2021/10/13 10:14:02;;;;;;;1999.90;999.90;;;;;;;13.85;60.72;95484.72;5069939;28;20737;-67
2021/10/13 10:16:31;;;;;;;1999.90;999.90;;;;;;;13.92;62.01;95486.84;5069892;28;20196;-68
2021/10/13 10:19:21;;;;;;;1999.90;999.90;;;;;;;13.98;60.83;95483.00;5069989;28;20196;-66
2021/10/13 10:21:55;;;;;;;1999.90;999.90;;;;;;;13.85;61.10;95487.34;5070146;28;20193;-67
2021/10/13 10:24:30;;;;;;;1999.90;999.90;;;;;;;13.99;62.83;95487.16;5070014;28;20184;-67
2021/10/13 10:27:26;;;;;;;1999.90;999.90;;;;;;;14.09;61.24;95487.56;5070203;28;20227;-67
2021/10/13 10:30:18;;;;;;;1999.90;999.90;;;;;;;14.31;61.80;95494.34;5069775;28;20242;-66
2021/10/13 10:32:47;;;;;;;1999.90;999.90;;;;;;;13.87;58.45;95495.63;5069868;28;20267;-67
2021/10/13 10:35:17;;;;;;;1999.90;999.90;;;;;;;13.53;58.92;95491.28;5069607;28;20220;-66
2021/10/13 10:37:46;;;;;;;1999.90;999.90;;;;;;;13.60;62.63;95496.06;5070145;28;20196;-67
2021/10/13 10:40:16;;;;;;;1999.90;999.90;;;;;;;13.43;59.56;95490.84;5069575;28;20240;-67
2021/10/13 10:43:06;;;;;;;1999.90;999.90;;;;;;;13.38;59.95;95488.41;5070294;28;20561;-67
2021/10/13 10:45:36;;;;;;;1999.90;999.90;;;;;;;13.27;61.70;95490.56;5069832;28;20197;-66
2021/10/13 10:48:13;;;;;;;1999.90;999.90;;;;;;;13.26;60.26;95489.03;5069893;28;20320;-66
2021/10/13 10:50:47;;;;;;;1999.90;999.90;;;;;;;13.36;61.15;95486.88;5069751;28;20645;-67
2021/10/13 10:53:21;;;;;;;1999.90;999.90;;;;;;;13.39;61.56;95485.50;5069621;28;20299;-66
2021/10/13 10:55:50;;;;;;;1999.90;999.90;;;;;;;13.53;61.80;95482.69;5069328;28;20583;-67
2021/10/13 10:58:21;;;;;;;1999.90;999.90;;;;;;;13.51;61.65;95485.59;5083614;28;20619;-66
2021/10/13 11:01:00;;;;;;;1999.90;999.90;;;;;;;13.62;62.94;95493.88;5089670;28;20253;-66
2021/10/13 11:03:33;;;;;;;1999.90;999.90;;;;;;;13.48;61.80;95501.91;5093448;28;20267;-67
2021/10/13 11:06:13;;;;;;;1999.90;999.90;;;;;;;13.34;61.99;95498.72;5093230;28;20230;-67